createdAt,value
2023-02-22T00:00:19.233Z,56.70
2023-02-22T00:01:43.685Z,56.78
2023-02-22T00:02:48.461Z,56.96
2023-02-22T00:03:53.504Z,56.98
2023-02-22T00:04:55.050Z,56.82
2023-02-22T00:05:58.379Z,57.14
2023-02-22T00:07:02.038Z,56.95
2023-02-22T00:08:03.492Z,57.05
2023-02-22T00:09:05.145Z,56.94
2023-02-22T00:10:13.298Z,57.03
2023-02-22T00:11:15.292Z,57.22
2023-02-22T00:12:16.906Z,57.14
2023-02-22T00:13:19.148Z,57.03
2023-02-22T00:14:20.671Z,57.06
2023-02-22T00:15:22.775Z,57.18
2023-02-22T00:16:24.587Z,57.09
2023-02-22T00:17:26.029Z,57.05
2023-02-22T00:18:28.715Z,57.15
2023-02-22T00:19:30.985Z,57.08
2023-02-22T00:20:32.703Z,57.10
2023-02-22T00:21:34.176Z,57.01
2023-02-22T00:22:35.701Z,57.10
2023-02-22T00:23:39.816Z,57.41
2023-02-22T00:24:41.536Z,57.26
2023-02-22T00:25:43.078Z,57.26
2023-02-22T00:26:47.041Z,57.26
2023-02-22T00:27:48.717Z,57.17
2023-02-22T00:28:52.464Z,57.37
2023-02-22T00:29:56.516Z,57.36
2023-02-22T00:30:59.843Z,57.29
2023-02-22T00:32:01.539Z,57.29
2023-02-22T00:33:03.577Z,57.13
2023-02-22T00:34:05.086Z,57.07
2023-02-22T00:35:08.317Z,57.05
2023-02-22T00:36:10.746Z,57.16
2023-02-22T00:37:12.211Z,57.06
2023-02-22T00:38:15.046Z,57.01
2023-02-22T00:39:16.549Z,57.12
2023-02-22T00:40:18.994Z,57.03
2023-02-22T00:41:20.634Z,56.88
2023-02-22T00:42:24.812Z,56.98
2023-02-22T00:43:27.227Z,57.00
2023-02-22T00:44:28.747Z,56.99
2023-02-22T00:45:30.811Z,57.16
2023-02-22T00:46:32.664Z,57.16
2023-02-22T00:47:34.227Z,57.21
2023-02-22T00:48:35.708Z,57.28
2023-02-22T00:49:37.250Z,57.40
2023-02-22T00:50:38.911Z,57.61
2023-02-22T00:51:40.602Z,57.39
2023-02-22T00:52:45.245Z,57.43
2023-02-22T00:53:46.787Z,57.51
2023-02-22T00:54:48.245Z,57.48
2023-02-22T00:55:50.467Z,57.53
2023-02-22T00:56:52.089Z,57.60
2023-02-22T00:57:53.841Z,57.75
2023-02-22T00:58:55.403Z,57.85
2023-02-22T00:59:56.921Z,58.01
2023-02-22T01:00:58.441Z,57.66
2023-02-22T01:02:00.044Z,57.81
2023-02-22T01:03:01.636Z,58.00
2023-02-22T01:04:03.441Z,57.97
2023-02-22T01:05:09.621Z,57.93
2023-02-22T01:06:11.163Z,57.84
2023-02-22T01:07:14.309Z,57.92
2023-02-22T01:08:16.166Z,58.14
2023-02-22T01:09:17.626Z,57.97
2023-02-22T01:10:19.954Z,58.05
2023-02-22T01:11:22.394Z,57.88
2023-02-22T01:12:23.895Z,57.91
2023-02-22T01:13:25.362Z,58.19
2023-02-22T01:14:27.823Z,58.09
2023-02-22T01:15:30.779Z,58.16
2023-02-22T01:16:32.314Z,58.05
2023-02-22T01:17:33.836Z,58.04
2023-02-22T01:18:35.842Z,58.03
2023-02-22T01:19:37.350Z,58.06
2023-02-22T01:20:39.456Z,58.13
2023-02-22T01:21:42.494Z,58.28
2023-02-22T01:22:44.604Z,58.09
2023-02-22T01:23:46.177Z,58.18
2023-02-22T01:24:48.238Z,58.37
2023-02-22T01:25:49.754Z,58.44
2023-02-22T01:26:51.955Z,58.40
2023-02-22T01:27:53.540Z,58.24
2023-02-22T01:28:55.040Z,58.19
2023-02-22T01:29:56.519Z,58.15
2023-02-22T01:30:58.275Z,58.11
2023-02-22T01:32:01.734Z,58.03
2023-02-22T01:33:04.034Z,58.13
2023-02-22T01:34:05.552Z,57.90
2023-02-22T01:35:08.588Z,58.08
2023-02-22T01:36:11.511Z,58.00
2023-02-22T01:37:13.114Z,58.16
2023-02-22T01:38:14.694Z,57.91
2023-02-22T01:39:17.851Z,58.05
2023-02-22T01:40:20.588Z,57.91
2023-02-22T01:41:22.589Z,57.86
2023-02-22T01:42:24.212Z,57.96
2023-02-22T01:43:29.757Z,57.82
2023-02-22T01:44:31.347Z,57.92
2023-02-22T01:45:33.638Z,58.18
2023-02-22T01:46:35.094Z,58.29
2023-02-22T01:47:36.628Z,58.19
2023-02-22T01:48:47.489Z,58.49
2023-02-22T01:49:49.494Z,58.36
2023-02-22T01:50:55.340Z,58.32
2023-02-22T01:51:57.919Z,58.61
2023-02-22T01:52:59.444Z,58.58
2023-02-22T01:54:00.874Z,58.76
2023-02-22T01:55:02.352Z,58.49
2023-02-22T01:56:04.021Z,58.64
2023-02-22T01:57:08.483Z,58.68
2023-02-22T01:58:10.103Z,58.74
2023-02-22T01:59:11.713Z,58.86
2023-02-22T02:00:16.917Z,58.96
2023-02-22T02:01:20.145Z,58.92
2023-02-22T02:02:25.272Z,58.98
2023-02-22T02:03:29.725Z,58.97
2023-02-22T02:04:31.244Z,59.07
2023-02-22T02:05:32.725Z,58.97
2023-02-22T02:06:34.379Z,58.80
2023-02-22T02:07:36.188Z,59.26
2023-02-22T02:08:47.461Z,59.18
2023-02-22T02:09:53.120Z,58.88
2023-02-22T02:10:54.986Z,58.96
2023-02-22T02:11:57.353Z,58.75
2023-02-22T02:12:58.793Z,59.09
2023-02-22T02:14:00.264Z,58.95
2023-02-22T02:15:17.504Z,58.87
2023-02-22T02:16:19.028Z,58.91
2023-02-22T02:17:21.585Z,58.84
2023-02-22T02:18:23.270Z,59.02
2023-02-22T02:19:24.717Z,59.14
2023-02-22T02:20:26.397Z,58.94
2023-02-22T02:21:49.819Z,59.11
2023-02-22T02:23:09.795Z,59.44
2023-02-22T02:24:14.045Z,59.14
2023-02-22T02:25:34.130Z,59.52
2023-02-22T02:26:40.532Z,59.67
2023-02-22T02:27:49.668Z,59.89
2023-02-22T02:28:56.674Z,59.70
2023-02-22T02:30:16.602Z,59.52
2023-02-22T02:31:30.368Z,59.51
2023-02-22T02:33:04.164Z,59.30
2023-02-22T02:34:09.201Z,59.36
2023-02-22T02:35:11.436Z,59.30
2023-02-22T02:36:15.560Z,59.09
2023-02-22T02:37:27.673Z,59.28
2023-02-22T02:38:38.064Z,59.43
2023-02-22T02:39:41.353Z,59.58
2023-02-22T02:40:47.308Z,59.25
2023-02-22T02:41:50.693Z,59.48
2023-02-22T02:43:10.712Z,59.14
2023-02-22T02:44:13.648Z,59.10
2023-02-22T02:45:26.460Z,59.29
2023-02-22T02:46:31.805Z,59.14
2023-02-22T02:47:34.776Z,59.31
2023-02-22T02:48:36.324Z,59.28
2023-02-22T02:49:40.017Z,59.31
2023-02-22T02:50:43.960Z,59.26
2023-02-22T02:51:48.043Z,59.26
2023-02-22T02:52:49.518Z,58.90
2023-02-22T02:53:51.409Z,59.11
2023-02-22T02:54:53.053Z,59.24
2023-02-22T02:55:54.544Z,59.36
2023-02-22T02:56:56.281Z,59.50
2023-02-22T02:57:59.349Z,59.23
2023-02-22T02:59:02.395Z,59.41
2023-02-22T03:00:09.324Z,59.11
2023-02-22T03:01:11.933Z,59.32
2023-02-22T03:02:34.601Z,59.24
2023-02-22T03:03:41.458Z,59.10
2023-02-22T03:04:48.965Z,59.04
2023-02-22T03:06:08.764Z,58.91
2023-02-22T03:07:14.303Z,59.03
2023-02-22T03:08:15.861Z,58.94
2023-02-22T03:09:25.043Z,58.97
2023-02-22T03:10:32.133Z,59.30
2023-02-22T03:11:48.381Z,59.30
2023-02-22T03:12:54.490Z,59.10
2023-02-22T03:13:58.066Z,59.32
2023-02-22T03:15:08.397Z,59.26
2023-02-22T03:16:16.561Z,59.08
2023-02-22T03:17:20.754Z,59.61
2023-02-22T03:18:40.497Z,59.30
2023-02-22T03:19:42.448Z,59.44
2023-02-22T03:20:55.543Z,59.51
2023-02-22T03:21:57.009Z,59.46
2023-02-22T03:23:04.165Z,59.50
2023-02-22T03:24:07.344Z,59.48
2023-02-22T03:25:09.279Z,59.50
2023-02-22T03:26:14.804Z,59.27
2023-02-22T03:27:37.513Z,59.39
2023-02-22T03:28:41.553Z,59.19
2023-02-22T03:29:45.026Z,59.14
2023-02-22T03:30:53.569Z,59.44
2023-02-22T03:31:59.613Z,59.49
2023-02-22T03:33:02.177Z,59.42
2023-02-22T03:34:08.652Z,59.33
2023-02-22T03:35:11.294Z,59.17
2023-02-22T03:36:19.980Z,59.33
2023-02-22T03:37:22.499Z,59.51
2023-02-22T03:38:26.832Z,59.38
2023-02-22T03:39:31.045Z,59.38
2023-02-22T03:40:35.026Z,59.45
2023-02-22T03:41:38.599Z,58.95
2023-02-22T03:42:40.939Z,59.28
2023-02-22T03:43:43.241Z,59.37
2023-02-22T03:44:48.703Z,59.24
2023-02-22T03:45:50.258Z,58.97
2023-02-22T03:46:54.270Z,59.13
2023-02-22T03:48:04.474Z,59.35
2023-02-22T03:49:10.157Z,59.12
2023-02-22T03:50:20.662Z,59.13
2023-02-22T03:51:22.528Z,59.37
2023-02-22T03:52:27.662Z,59.49
2023-02-22T03:53:30.557Z,59.25
2023-02-22T03:54:32.168Z,59.80
2023-02-22T03:55:33.883Z,59.90
2023-02-22T03:56:37.256Z,59.31
2023-02-22T03:57:39.412Z,59.58
2023-02-22T03:58:43.930Z,59.56
2023-02-22T03:59:45.453Z,59.46
2023-02-22T04:00:46.952Z,59.31
2023-02-22T04:01:48.444Z,59.39
2023-02-22T04:02:50.042Z,59.10
2023-02-22T04:03:54.466Z,59.16
2023-02-22T04:04:56.041Z,59.11
2023-02-22T04:05:57.990Z,58.92
2023-02-22T04:06:59.549Z,59.24
2023-02-22T04:08:02.098Z,59.04
2023-02-22T04:09:04.360Z,58.90
2023-02-22T04:10:08.583Z,59.02
2023-02-22T04:11:11.137Z,59.49
2023-02-22T04:12:13.386Z,59.33
2023-02-22T04:13:28.681Z,59.67
2023-02-22T04:14:30.569Z,59.67
2023-02-22T04:15:32.613Z,59.61
2023-02-22T04:16:38.537Z,59.72
2023-02-22T04:17:42.853Z,59.24
2023-02-22T04:18:48.007Z,59.73
2023-02-22T04:19:52.743Z,60.17
2023-02-22T04:20:56.136Z,60.08
2023-02-22T04:22:23.874Z,60.40
2023-02-22T04:23:26.970Z,60.50
2023-02-22T04:24:30.531Z,60.19
2023-02-22T04:25:32.901Z,60.18
2023-02-22T04:26:45.302Z,60.22
2023-02-22T04:27:46.906Z,60.41
2023-02-22T04:28:49.707Z,60.67
2023-02-22T04:29:53.398Z,60.25
2023-02-22T04:30:55.037Z,60.51
2023-02-22T04:31:57.806Z,60.48
2023-02-22T04:32:59.789Z,60.40
2023-02-22T04:34:01.572Z,60.48
2023-02-22T04:35:06.512Z,60.46
2023-02-22T04:36:08.861Z,60.25
2023-02-22T04:37:10.659Z,60.59
2023-02-22T04:38:12.168Z,60.34
2023-02-22T04:39:15.383Z,59.94
2023-02-22T04:40:18.833Z,60.26
2023-02-22T04:41:23.426Z,60.72
2023-02-22T04:42:26.678Z,61.85
2023-02-22T04:43:29.633Z,61.25
2023-02-22T04:44:40.504Z,60.60
2023-02-22T04:45:42.088Z,60.27
2023-02-22T04:46:43.878Z,60.43
2023-02-22T04:47:47.945Z,60.03
2023-02-22T04:48:49.610Z,60.20
2023-02-22T04:49:54.929Z,59.81
2023-02-22T04:50:56.477Z,59.91
2023-02-22T04:51:58.659Z,59.89
2023-02-22T04:53:08.022Z,59.87
2023-02-22T04:54:12.929Z,60.30
2023-02-22T04:55:18.666Z,59.79
2023-02-22T04:56:20.319Z,60.13
2023-02-22T04:57:22.151Z,59.92
2023-02-22T04:58:24.938Z,60.41
2023-02-22T04:59:26.432Z,60.08
2023-02-22T05:00:31.430Z,60.09
2023-02-22T05:01:36.533Z,60.08
2023-02-22T05:02:39.874Z,60.18
2023-02-22T05:03:41.426Z,59.95
2023-02-22T05:04:43.147Z,60.16
2023-02-22T05:05:44.645Z,59.98
2023-02-22T05:06:46.116Z,59.83
2023-02-22T05:07:48.069Z,60.47
2023-02-22T05:08:49.600Z,60.54
2023-02-22T05:09:51.123Z,60.52
2023-02-22T05:10:52.597Z,60.60
2023-02-22T05:11:54.305Z,60.04
2023-02-22T05:12:55.838Z,60.07
2023-02-22T05:13:57.354Z,60.04
2023-02-22T05:14:58.889Z,60.03
2023-02-22T05:16:00.411Z,59.90
2023-02-22T05:17:02.224Z,59.92
2023-02-22T05:18:03.774Z,59.83
2023-02-22T05:19:05.302Z,59.76
2023-02-22T05:20:08.568Z,59.74
2023-02-22T05:21:10.101Z,59.74
2023-02-22T05:22:11.558Z,59.82
2023-02-22T05:23:13.052Z,59.67
2023-02-22T05:24:14.696Z,59.74
2023-02-22T05:25:16.391Z,60.00
2023-02-22T05:26:17.935Z,59.70
2023-02-22T05:27:19.448Z,60.13
2023-02-22T05:28:20.979Z,59.83
2023-02-22T05:29:50.239Z,60.16
2023-02-22T05:30:51.786Z,60.22
2023-02-22T05:31:53.346Z,60.01
2023-02-22T05:32:54.913Z,60.02
2023-02-22T05:33:56.372Z,59.99
2023-02-22T05:34:57.832Z,60.35
2023-02-22T05:35:59.295Z,59.99
2023-02-22T05:37:00.854Z,59.90
2023-02-22T05:38:03.632Z,60.17
2023-02-22T05:39:05.484Z,60.37
2023-02-22T05:40:07.707Z,60.20
2023-02-22T05:41:10.716Z,59.93
2023-02-22T05:42:12.156Z,60.24
2023-02-22T05:43:13.688Z,59.85
2023-02-22T05:44:15.126Z,59.66
2023-02-22T05:45:18.172Z,59.92
2023-02-22T05:46:19.683Z,60.27
2023-02-22T05:47:21.172Z,59.81
2023-02-22T05:48:22.800Z,59.86
2023-02-22T05:49:24.319Z,60.57
2023-02-22T05:50:26.127Z,60.36
2023-02-22T05:51:27.550Z,60.33
2023-02-22T05:52:29.029Z,60.71
2023-02-22T05:53:30.673Z,60.36
2023-02-22T05:54:32.117Z,60.17
2023-02-22T05:55:33.597Z,60.27
2023-02-22T05:56:36.379Z,60.33
2023-02-22T05:57:37.933Z,60.44
2023-02-22T05:58:39.408Z,60.71
2023-02-22T05:59:40.927Z,60.66
2023-02-22T06:00:42.404Z,60.82
2023-02-22T06:01:44.006Z,60.28
2023-02-22T06:02:45.531Z,60.24
2023-02-22T06:03:50.412Z,60.23
2023-02-22T06:04:51.846Z,60.47
2023-02-22T06:05:53.360Z,60.78
2023-02-22T06:06:54.824Z,60.82
2023-02-22T06:07:56.560Z,60.69
2023-02-22T06:08:58.068Z,60.45
2023-02-22T06:09:59.557Z,60.60
2023-02-22T06:11:01.012Z,60.88
2023-02-22T06:12:02.466Z,60.22
2023-02-22T06:13:04.287Z,60.57
2023-02-22T06:14:05.757Z,60.49
2023-02-22T06:15:07.346Z,60.59
2023-02-22T06:16:08.870Z,60.58
2023-02-22T06:17:10.329Z,60.33
2023-02-22T06:18:11.822Z,60.52
2023-02-22T06:19:13.334Z,60.51
2023-02-22T06:20:15.470Z,60.86
2023-02-22T06:21:17.583Z,60.92
2023-02-22T06:22:19.577Z,61.05
2023-02-22T06:23:21.038Z,60.65
2023-02-22T06:24:22.612Z,60.67
2023-02-22T06:25:25.206Z,61.11
2023-02-22T06:26:26.645Z,60.86
2023-02-22T06:27:30.525Z,60.73
2023-02-22T06:28:31.998Z,60.96
2023-02-22T06:29:33.523Z,60.95
2023-02-22T06:30:35.086Z,60.15
2023-02-22T06:31:36.796Z,60.95
2023-02-22T06:32:38.685Z,61.16
2023-02-22T06:33:40.132Z,60.71
2023-02-22T06:34:41.746Z,60.73
2023-02-22T06:35:43.225Z,60.55
2023-02-22T06:36:44.737Z,61.03
2023-02-22T06:37:46.224Z,61.08
2023-02-22T06:38:47.717Z,60.90
2023-02-22T06:39:49.201Z,60.73
2023-02-22T06:40:50.722Z,60.75
2023-02-22T06:41:52.393Z,61.07
2023-02-22T06:42:54.220Z,61.05
2023-02-22T06:43:55.682Z,61.15
2023-02-22T06:44:57.185Z,61.41
2023-02-22T06:45:58.683Z,60.93
2023-02-22T06:47:00.201Z,61.25
2023-02-22T06:48:01.716Z,60.85
2023-02-22T06:49:03.213Z,60.83
2023-02-22T06:50:04.788Z,60.93
2023-02-22T06:51:08.280Z,61.25
2023-02-22T06:52:09.797Z,60.70
2023-02-22T06:53:11.280Z,61.07
2023-02-22T06:54:12.776Z,61.74
2023-02-22T06:55:18.204Z,61.32
2023-02-22T06:56:19.791Z,61.34
2023-02-22T06:57:21.327Z,61.59
2023-02-22T06:58:22.865Z,61.45
2023-02-22T06:59:24.322Z,61.26
2023-02-22T07:00:25.967Z,61.63
2023-02-22T07:01:27.933Z,61.63
2023-02-22T07:02:29.372Z,61.95
2023-02-22T07:03:30.876Z,61.96
2023-02-22T07:04:32.369Z,61.49
2023-02-22T07:05:33.869Z,61.88
2023-02-22T07:06:36.328Z,62.12
2023-02-22T07:07:38.793Z,61.98
2023-02-22T07:08:40.271Z,62.20
2023-02-22T07:09:41.748Z,61.97
2023-02-22T07:10:43.208Z,61.56
2023-02-22T07:11:44.687Z,61.89
2023-02-22T07:12:46.169Z,62.18
2023-02-22T07:13:47.641Z,61.69
2023-02-22T07:14:49.107Z,61.83
2023-02-22T07:15:50.603Z,61.76
2023-02-22T07:16:52.076Z,62.16
2023-02-22T07:17:53.673Z,61.72
2023-02-22T07:18:55.213Z,62.01
2023-02-22T07:19:56.720Z,61.52
2023-02-22T07:20:58.687Z,61.67
2023-02-22T07:22:00.161Z,61.62
2023-02-22T07:23:01.606Z,61.66
2023-02-22T07:24:05.404Z,61.76
2023-02-22T07:25:07.374Z,61.46
2023-02-22T07:26:08.820Z,61.64
2023-02-22T07:27:10.333Z,61.67
2023-02-22T07:28:11.807Z,61.63
2023-02-22T07:29:13.284Z,61.66
2023-02-22T07:30:18.880Z,62.14
2023-02-22T07:31:20.400Z,62.05
2023-02-22T07:32:21.940Z,61.99
2023-02-22T07:33:23.476Z,62.00
2023-02-22T07:34:24.965Z,61.92
2023-02-22T07:35:27.430Z,62.09
2023-02-22T07:36:28.935Z,62.20
2023-02-22T07:37:30.463Z,62.26
2023-02-22T07:38:31.977Z,62.19
2023-02-22T07:39:34.522Z,62.23
2023-02-22T07:40:36.440Z,62.48
2023-02-22T07:41:37.991Z,62.04
2023-02-22T07:42:53.769Z,62.32
2023-02-22T07:43:55.231Z,62.39
2023-02-22T07:44:58.129Z,62.35
2023-02-22T07:46:00.165Z,62.54
2023-02-22T07:47:02.563Z,62.41
2023-02-22T07:48:04.783Z,62.50
2023-02-22T07:49:06.371Z,62.47
2023-02-22T07:50:07.936Z,62.20
2023-02-22T07:51:10.146Z,62.03
2023-02-22T07:52:12.697Z,61.81
2023-02-22T07:53:15.527Z,61.58
2023-02-22T07:54:16.995Z,61.56
2023-02-22T07:55:19.397Z,61.57
2023-02-22T07:56:20.898Z,61.48
2023-02-22T07:57:23.997Z,61.55
2023-02-22T07:58:26.113Z,61.55
2023-02-22T07:59:27.598Z,61.32
2023-02-22T08:00:29.929Z,61.05
2023-02-22T08:01:31.948Z,60.90
2023-02-22T08:02:33.413Z,60.76
2023-02-22T08:03:37.829Z,60.39
2023-02-22T08:04:39.494Z,60.48
2023-02-22T08:05:41.566Z,59.84
2023-02-22T08:06:46.282Z,59.78
2023-02-22T08:07:47.772Z,59.76
2023-02-22T08:08:49.293Z,59.92
2023-02-22T08:09:50.740Z,60.05
2023-02-22T08:10:52.398Z,59.44
2023-02-22T08:11:53.864Z,59.42
2023-02-22T08:12:55.918Z,59.49
2023-02-22T08:13:57.508Z,59.04
2023-02-22T08:14:59.001Z,59.18
2023-02-22T08:16:00.519Z,59.16
2023-02-22T08:17:02.067Z,58.69
2023-02-22T08:18:04.277Z,58.30
2023-02-22T08:19:05.928Z,58.22
2023-02-22T08:20:07.458Z,58.12
2023-02-22T08:21:08.891Z,57.49
2023-02-22T08:22:10.382Z,58.16
2023-02-22T08:23:12.754Z,57.79
2023-02-22T08:24:14.296Z,58.05
2023-02-22T08:25:16.204Z,57.70
2023-02-22T08:26:18.522Z,57.56
2023-02-22T08:27:29.144Z,57.26
2023-02-22T08:28:30.614Z,56.58
2023-02-22T08:29:33.625Z,56.73
2023-02-22T08:30:35.379Z,56.94
2023-02-22T08:31:36.958Z,56.96
2023-02-22T08:32:38.884Z,57.03
2023-02-22T08:33:41.468Z,57.36
2023-02-22T08:34:43.214Z,57.27
2023-02-22T08:35:45.043Z,57.73
2023-02-22T08:36:46.513Z,57.98
2023-02-22T08:37:52.396Z,58.16
2023-02-22T08:38:53.879Z,58.40
2023-02-22T08:39:56.168Z,58.71
2023-02-22T08:40:57.762Z,58.10
2023-02-22T08:41:59.316Z,57.12
2023-02-22T08:43:01.760Z,56.95
2023-02-22T08:44:03.688Z,56.84
2023-02-22T08:45:05.324Z,56.44
2023-02-22T08:46:06.809Z,56.43
2023-02-22T08:47:08.315Z,56.23
2023-02-22T08:48:09.785Z,55.96
2023-02-22T08:49:11.385Z,55.47
2023-02-22T08:50:16.981Z,55.60
2023-02-22T08:51:18.913Z,55.34
2023-02-22T08:52:21.571Z,55.55
2023-02-22T08:53:23.217Z,55.51
2023-02-22T08:54:24.733Z,54.81
2023-02-22T08:55:27.219Z,54.20
2023-02-22T08:56:30.064Z,54.17
2023-02-22T08:57:31.844Z,53.64
2023-02-22T08:58:33.332Z,53.16
2023-02-22T08:59:34.877Z,52.82
2023-02-22T09:00:36.508Z,51.90
2023-02-22T09:01:38.297Z,52.27
2023-02-22T09:02:40.040Z,51.88
2023-02-22T09:03:41.612Z,51.21
2023-02-22T09:04:43.226Z,51.09
2023-02-22T09:05:44.875Z,50.64
2023-02-22T09:06:51.723Z,50.87
2023-02-22T09:07:53.426Z,50.10
2023-02-22T09:08:54.958Z,50.37
2023-02-22T09:09:56.449Z,50.48
2023-02-22T09:10:57.975Z,49.39
2023-02-22T09:11:59.461Z,49.84
2023-02-22T09:13:01.465Z,49.68
2023-02-22T09:14:03.056Z,49.36
2023-02-22T09:15:04.618Z,49.79
2023-02-22T09:16:06.217Z,49.40
2023-02-22T09:17:07.681Z,49.52
2023-02-22T09:18:09.956Z,49.28
2023-02-22T09:19:11.519Z,49.54
2023-02-22T09:20:13.907Z,49.21
2023-02-22T09:21:15.761Z,49.06
2023-02-22T09:22:17.428Z,49.23
2023-02-22T09:23:21.649Z,49.32
2023-02-22T09:24:23.612Z,49.30
2023-02-22T09:25:25.143Z,49.50
2023-02-22T09:26:28.508Z,50.29
2023-02-22T09:27:30.044Z,50.45
2023-02-22T09:28:31.504Z,50.46
2023-02-22T09:29:33.010Z,50.54
2023-02-22T09:30:35.130Z,50.53
2023-02-22T09:31:37.377Z,50.79
2023-02-22T09:32:39.204Z,51.13
2023-02-22T09:33:40.946Z,51.44
2023-02-22T09:34:45.806Z,52.00
2023-02-22T09:35:47.825Z,52.09
2023-02-22T09:36:49.369Z,52.62
2023-02-22T09:37:50.874Z,52.15
2023-02-22T09:38:52.889Z,52.58
2023-02-22T09:39:54.368Z,52.54
2023-02-22T09:41:02.124Z,52.22
2023-02-22T09:42:06.796Z,52.29
2023-02-22T09:43:26.779Z,51.84
2023-02-22T09:44:28.251Z,51.64
2023-02-22T09:45:36.876Z,51.55
2023-02-22T09:46:38.829Z,51.61
2023-02-22T09:47:41.722Z,51.36
2023-02-22T09:48:57.917Z,51.34
2023-02-22T09:50:03.564Z,51.47
2023-02-22T09:51:07.005Z,51.71
2023-02-22T09:52:12.347Z,51.63
2023-02-22T09:53:32.177Z,51.64
2023-02-22T09:54:37.321Z,51.68
2023-02-22T09:55:41.786Z,51.66
2023-02-22T09:56:43.832Z,51.94
2023-02-22T09:57:46.257Z,52.17
2023-02-22T09:58:48.750Z,52.29
2023-02-22T10:00:13.201Z,52.15
2023-02-22T10:01:23.142Z,51.63
2023-02-22T10:02:28.678Z,52.03
2023-02-22T10:03:34.660Z,51.81
2023-02-22T10:04:41.501Z,51.70
2023-02-22T10:05:44.078Z,51.76
2023-02-22T10:07:09.044Z,51.75
2023-02-22T10:08:14.025Z,51.80
2023-02-22T10:09:15.713Z,51.83
2023-02-22T10:10:17.550Z,51.49
2023-02-22T10:11:27.847Z,51.42
2023-02-22T10:12:35.851Z,51.34
2023-02-22T10:13:42.168Z,51.42
2023-02-22T10:15:01.743Z,51.41
2023-02-22T10:16:21.293Z,51.17
2023-02-22T10:17:27.323Z,50.67
2023-02-22T10:18:44.071Z,51.24
2023-02-22T10:19:54.879Z,50.86
2023-02-22T10:21:08.724Z,50.66
2023-02-22T10:22:10.816Z,51.21
2023-02-22T10:23:21.761Z,51.41
2023-02-22T10:24:45.496Z,51.53
2023-02-22T10:25:49.093Z,50.87
2023-02-22T10:26:50.556Z,51.05
2023-02-22T10:27:52.014Z,50.77
2023-02-22T10:28:55.345Z,50.89
2023-02-22T10:30:22.330Z,50.17
2023-02-22T10:31:27.426Z,49.87
2023-02-22T10:32:31.600Z,49.78
2023-02-22T10:33:40.108Z,49.80
2023-02-22T10:34:44.068Z,49.59
2023-02-22T10:35:47.059Z,49.24
2023-02-22T10:36:49.470Z,49.53
2023-02-22T10:37:53.252Z,49.43
2023-02-22T10:38:55.681Z,49.75
2023-02-22T10:39:59.224Z,50.26
2023-02-22T10:41:03.982Z,50.48
2023-02-22T10:42:06.799Z,50.55
2023-02-22T10:43:08.498Z,49.82
2023-02-22T10:44:09.966Z,49.80
2023-02-22T10:45:18.466Z,49.49
2023-02-22T10:46:20.638Z,49.28
2023-02-22T10:47:22.325Z,49.01
2023-02-22T10:48:24.565Z,48.88
2023-02-22T10:49:26.020Z,49.50
2023-02-22T10:50:30.837Z,48.70
2023-02-22T10:51:32.842Z,49.09
2023-02-22T10:52:34.497Z,48.64
2023-02-22T10:53:38.247Z,48.99
2023-02-22T10:54:44.568Z,48.71
2023-02-22T10:56:04.789Z,48.54
2023-02-22T10:57:06.356Z,48.44
2023-02-22T10:58:07.856Z,47.88
2023-02-22T10:59:09.650Z,47.74
2023-02-22T11:00:29.512Z,47.13
2023-02-22T11:01:31.086Z,46.72
2023-02-22T11:02:33.379Z,47.28
2023-02-22T11:03:34.921Z,47.86
2023-02-22T11:04:49.742Z,46.64
2023-02-22T11:05:52.488Z,46.15
2023-02-22T11:06:59.596Z,46.31
2023-02-22T11:08:16.077Z,46.88
2023-02-22T11:09:18.562Z,47.11
2023-02-22T11:10:20.547Z,46.98
2023-02-22T11:11:25.538Z,46.89
2023-02-22T11:12:29.954Z,46.86
2023-02-22T11:13:31.574Z,47.00
2023-02-22T11:14:33.128Z,47.53
2023-02-22T11:15:35.994Z,46.63
2023-02-22T11:16:38.666Z,46.11
2023-02-22T11:17:41.105Z,46.30
2023-02-22T11:18:42.559Z,46.49
2023-02-22T11:19:47.687Z,46.33
2023-02-22T11:20:49.175Z,46.54
2023-02-22T11:21:51.567Z,46.64
2023-02-22T11:22:54.726Z,46.20
2023-02-22T11:24:03.089Z,46.20
2023-02-22T11:25:07.480Z,46.33
2023-02-22T11:26:09.006Z,45.88
2023-02-22T11:27:10.938Z,45.30
2023-02-22T11:28:17.561Z,45.15
2023-02-22T11:29:31.913Z,44.63
2023-02-22T11:30:35.464Z,45.06
2023-02-22T11:31:41.375Z,44.86
2023-02-22T11:32:43.784Z,45.21
2023-02-22T11:35:08.672Z,45.19
2023-02-22T11:36:10.776Z,45.28
2023-02-22T11:37:48.028Z,45.24
2023-02-22T11:38:55.266Z,45.33
2023-02-22T11:40:18.367Z,45.04
2023-02-22T11:41:22.982Z,44.55
2023-02-22T11:42:25.624Z,45.07
2023-02-22T11:43:27.065Z,45.19
2023-02-22T11:44:29.472Z,44.96
2023-02-22T11:45:30.920Z,45.31
2023-02-22T11:46:33.507Z,45.60
2023-02-22T11:47:35.696Z,45.71
2023-02-22T11:48:39.428Z,45.54
2023-02-22T11:49:42.668Z,45.56
2023-02-22T11:50:53.243Z,45.21
2023-02-22T11:51:54.833Z,45.42
2023-02-22T11:53:03.165Z,45.21
2023-02-22T11:54:31.464Z,45.70
2023-02-22T11:55:43.079Z,45.41
2023-02-22T11:56:45.767Z,45.56
2023-02-22T11:58:04.585Z,45.48
2023-02-22T11:59:11.517Z,46.08
2023-02-22T12:00:25.796Z,46.59
2023-02-22T12:01:30.428Z,46.09
2023-02-22T12:02:56.757Z,45.99
2023-02-22T12:04:17.117Z,46.07
2023-02-22T12:05:22.201Z,46.20
2023-02-22T12:06:40.161Z,45.94
2023-02-22T12:08:05.269Z,46.34
2023-02-22T12:09:18.638Z,46.75
2023-02-22T12:10:22.822Z,46.81
2023-02-22T12:11:44.394Z,46.95
2023-02-22T12:12:52.490Z,46.75
2023-02-22T12:14:32.149Z,46.66
2023-02-22T12:15:42.736Z,46.71
2023-02-22T12:16:54.918Z,46.82
2023-02-22T12:18:05.701Z,46.72
2023-02-22T12:19:07.120Z,46.61
2023-02-22T12:20:21.946Z,47.21
2023-02-22T12:21:23.450Z,47.39
2023-02-22T12:22:26.009Z,47.29
2023-02-22T12:23:40.781Z,47.34
2023-02-22T12:24:44.380Z,47.02
2023-02-22T12:26:05.477Z,47.53
2023-02-22T12:27:09.678Z,47.29
2023-02-22T12:28:24.234Z,47.17
2023-02-22T12:29:26.675Z,47.41
2023-02-22T12:30:29.714Z,46.92
2023-02-22T12:31:33.992Z,46.68
2023-02-22T12:32:38.318Z,46.15
2023-02-22T12:33:46.367Z,46.19
2023-02-22T12:34:47.871Z,46.15
2023-02-22T12:35:50.421Z,46.33
2023-02-22T12:36:53.115Z,46.15
2023-02-22T12:38:01.919Z,45.97
2023-02-22T12:39:07.403Z,45.83
2023-02-22T12:40:13.418Z,45.60
2023-02-22T12:41:40.736Z,46.03
2023-02-22T12:42:45.383Z,46.27
2023-02-22T12:43:51.770Z,46.05
2023-02-22T12:44:55.292Z,46.19
2023-02-22T12:46:09.723Z,46.13
2023-02-22T12:47:14.451Z,46.24
2023-02-22T12:48:18.275Z,46.22
2023-02-22T12:49:27.095Z,46.03
2023-02-22T12:50:29.310Z,46.14
2023-02-22T12:51:39.680Z,46.01
2023-02-22T12:52:46.015Z,46.16
2023-02-22T12:53:55.997Z,46.25
2023-02-22T12:55:16.038Z,46.03
2023-02-22T12:56:26.668Z,46.23
2023-02-22T12:57:34.008Z,46.29
2023-02-22T12:58:39.930Z,46.46
2023-02-22T12:59:47.146Z,46.29
2023-02-22T13:01:01.967Z,46.50
2023-02-22T13:02:09.154Z,46.40
2023-02-22T13:03:25.278Z,46.60
2023-02-22T13:04:26.764Z,46.46
2023-02-22T13:05:29.579Z,46.53
2023-02-22T13:06:31.083Z,46.50
2023-02-22T13:07:32.590Z,46.54
2023-02-22T13:08:38.035Z,46.61
2023-02-22T13:09:57.857Z,46.48
2023-02-22T13:11:19.866Z,46.56
2023-02-22T13:12:31.020Z,46.80
2023-02-22T13:13:35.732Z,47.02
2023-02-22T13:14:40.021Z,46.71
2023-02-22T13:15:53.768Z,46.70
2023-02-22T13:16:55.256Z,46.54
2023-02-22T13:18:10.547Z,46.54
2023-02-22T13:19:11.997Z,46.88
2023-02-22T13:20:18.364Z,47.27
2023-02-22T13:21:39.187Z,46.77
2023-02-22T13:22:40.672Z,46.84
2023-02-22T13:24:05.251Z,46.54
2023-02-22T13:25:29.817Z,46.56
2023-02-22T13:26:37.353Z,46.52
2023-02-22T13:27:38.841Z,46.62
2023-02-22T13:28:50.823Z,46.61
2023-02-22T13:29:55.281Z,46.76
2023-02-22T13:31:09.595Z,46.83
2023-02-22T13:32:24.764Z,46.69
2023-02-22T13:33:36.061Z,46.82
2023-02-22T13:34:49.717Z,47.00
2023-02-22T13:36:06.867Z,47.25
2023-02-22T13:37:26.823Z,47.19
2023-02-22T13:38:48.378Z,47.38
2023-02-22T13:40:08.821Z,47.46
2023-02-22T13:41:15.000Z,47.58
2023-02-22T13:42:19.382Z,47.78
2023-02-22T13:43:36.055Z,47.84
2023-02-22T13:44:46.964Z,47.85
2023-02-22T13:45:54.419Z,47.99
2023-02-22T13:46:58.709Z,48.02
2023-02-22T13:48:03.686Z,47.70
2023-02-22T13:49:14.654Z,47.66
2023-02-22T13:50:16.266Z,47.71
2023-02-22T13:51:19.920Z,47.37
2023-02-22T13:52:22.098Z,47.41
2023-02-22T13:53:24.852Z,47.46